Hauptseite
METAR-TAF:

METAR-TAF

Flughäfen :

Flughafen Bagdad

Bagdad, Irak

Breite: 33-15-45N, Länge: 44-14-04E, Höhe: 35 m

Beobachtung

Neuester Wetterbericht von vor 1 Stunde und 13 Minuten, um 09:00 UTC
Wind 17 kt aus West/Nordwest
Temperatur 43°C
Luftfeuchtigkeit 13%
Luftdruck 1002 hPa
Sichtweite 10 km oder mehr
keine Wolken unter 1500 m und keine Kumulonimbus oder Gewitterwolken

METAR: ORBI 160900Z 29017KT CAVOK 43/09 Q1002 NOSIG

Zeit: 13:13 (10:13 UTC)

Prognose

Neuester Wetterbericht von vor 6 Stunden und 13 Minuten, um 04:00 UTC
Gültige Prognose vom 16 um 06 UTC bis 17 um 06 UTC
Wind 9 kt aus Nordwest
Sichtweite 10 km oder mehr
keine Wolken unter 1500 m und keine Kumulonimbus oder Gewitterwolken

TAF: ORBI 160400Z 1606/1706 32009KT CAVOK

Wetterbeobachtungen und Prognosen von mehr als 4000 Flughäfen (METAR und TAF Bericht).

Die verfügbaren Stationen werden durch gelbe und rote Markierungen auf der Karte dargestellt.

Führen Sie die Maus auf sie, um den Namen der Station zu sehen.

Darauf klicken, um die Beobachtung von Wetterbeobachtungen und Prognosen zu sehen.

Um die Karte zu ändern : klicken Sie auf den grünen Tasten mit einem schwarzen Kreuz Zum Vergrößern, auf den grünen Button mit einem Gedankenstrich zu verkleinern, oder auf die grünen Pfeile für benachbarte Karten.


METAR-TAF: